Baltimore, Maryland
Traffic Map
Current Weather Conditions
Baltimore, Maryland
Few Clouds
Few Clouds
19°
Feels Like: 19°
Wind Chill: 19° Ceiling: Unl
Heat Index: 19° Visibility: 10mi
Dew Point: 15° Wind: 0mph
Humidity: 76% Direction: ° ()
Pressure: 30.14in Gusts: 0mph
Raw Report DataKBWI 290554Z 00000KT 10SM FEW250 19/15 A3014 RMK AO2 SLP206 T01940150 10256 20194 58001
Traffic Incident Summary
Active as of:
Severity:
Category:
InformationThere was an issue retrieving the traffic information for this location. Please try a different location or try again shortly.
Advertisements
Track Severe Weather on mobile